sensor_id;sensor_type;location;lat;lon;timestamp;P1;durP1;ratioP1;P2;durP2;ratioP2
47365;SDS011;33105;47.964;7.982;2023-12-20T00:00:12;0.20;;;0.20;;
47365;SDS011;33105;47.964;7.982;2023-12-20T00:03:14;0.30;;;0.20;;
47365;SDS011;33105;47.964;7.982;2023-12-20T00:06:15;0.10;;;0.10;;
47365;SDS011;33105;47.964;7.982;2023-12-20T00:09:16;0.10;;;0.10;;
47365;SDS011;33105;47.964;7.982;2023-12-20T00:12:18;0.68;;;0.30;;
47365;SDS011;33105;47.964;7.982;2023-12-20T00:15:19;0.10;;;0.10;;
47365;SDS011;33105;47.964;7.982;2023-12-20T00:18:20;0.30;;;0.30;;
47365;SDS011;33105;47.964;7.982;2023-12-20T00:21:21;0.28;;;0.28;;
47365;SDS011;33105;47.964;7.982;2023-12-20T00:24:22;0.32;;;0.32;;
47365;SDS011;33105;47.964;7.982;2023-12-20T00:27:23;0.20;;;0.20;;
47365;SDS011;33105;47.964;7.982;2023-12-20T00:30:25;0.30;;;0.30;;
47365;SDS011;33105;47.964;7.982;2023-12-20T00:33:26;0.38;;;0.30;;
47365;SDS011;33105;47.964;7.982;2023-12-20T00:36:27;0.55;;;0.20;;
47365;SDS011;33105;47.964;7.982;2023-12-20T00:39:29;0.40;;;0.30;;
47365;SDS011;33105;47.964;7.982;2023-12-20T00:42:31;0.63;;;0.30;;
47365;SDS011;33105;47.964;7.982;2023-12-20T00:45:32;0.35;;;0.22;;
47365;SDS011;33105;47.964;7.982;2023-12-20T00:48:34;1.30;;;0.28;;
47365;SDS011;33105;47.964;7.982;2023-12-20T00:51:35;0.30;;;0.30;;
47365;SDS011;33105;47.964;7.982;2023-12-20T00:54:36;1.50;;;0.40;;
47365;SDS011;33105;47.964;7.982;2023-12-20T00:57:37;0.32;;;0.20;;
47365;SDS011;33105;47.964;7.982;2023-12-20T01:00:39;0.55;;;0.30;;
47365;SDS011;33105;47.964;7.982;2023-12-20T01:03:40;0.10;;;0.10;;
47365;SDS011;33105;47.964;7.982;2023-12-20T01:06:41;0.30;;;0.30;;
47365;SDS011;33105;47.964;7.982;2023-12-20T01:09:42;0.15;;;0.15;;
47365;SDS011;33105;47.964;7.982;2023-12-20T01:12:43;0.88;;;0.30;;
47365;SDS011;33105;47.964;7.982;2023-12-20T01:15:44;0.38;;;0.25;;
47365;SDS011;33105;47.964;7.982;2023-12-20T01:18:46;0.20;;;0.20;;
47365;SDS011;33105;47.964;7.982;2023-12-20T01:21:47;0.65;;;0.40;;
47365;SDS011;33105;47.964;7.982;2023-12-20T01:24:48;0.30;;;0.20;;
47365;SDS011;33105;47.964;7.982;2023-12-20T01:27:49;0.50;;;0.22;;
47365;SDS011;33105;47.964;7.982;2023-12-20T01:30:50;0.35;;;0.30;;
47365;SDS011;33105;47.964;7.982;2023-12-20T01:33:52;0.65;;;0.30;;
47365;SDS011;33105;47.964;7.982;2023-12-20T01:36:53;0.20;;;0.20;;
47365;SDS011;33105;47.964;7.982;2023-12-20T01:39:54;0.28;;;0.28;;
47365;SDS011;33105;47.964;7.982;2023-12-20T01:43:02;0.20;;;0.20;;
47365;SDS011;33105;47.964;7.982;2023-12-20T01:46:07;2.22;;;0.20;;
47365;SDS011;33105;47.964;7.982;2023-12-20T01:49:09;0.57;;;0.30;;
47365;SDS011;33105;47.964;7.982;2023-12-20T01:52:10;0.28;;;0.20;;
47365;SDS011;33105;47.964;7.982;2023-12-20T01:55:12;0.10;;;0.10;;
47365;SDS011;33105;47.964;7.982;2023-12-20T01:58:16;0.20;;;0.20;;
47365;SDS011;33105;47.964;7.982;2023-12-20T02:01:18;0.10;;;0.10;;
47365;SDS011;33105;47.964;7.982;2023-12-20T02:04:20;0.13;;;0.13;;
47365;SDS011;33105;47.964;7.982;2023-12-20T02:07:21;0.15;;;0.15;;
47365;SDS011;33105;47.964;7.982;2023-12-20T02:10:23;0.17;;;0.10;;
47365;SDS011;33105;47.964;7.982;2023-12-20T02:13:25;0.10;;;0.10;;
47365;SDS011;33105;47.964;7.982;2023-12-20T02:16:27;0.13;;;0.13;;
47365;SDS011;33105;47.964;7.982;2023-12-20T02:19:29;0.55;;;0.17;;
47365;SDS011;33105;47.964;7.982;2023-12-20T02:22:31;0.10;;;0.05;;
47365;SDS011;33105;47.964;7.982;2023-12-20T02:25:32;0.10;;;0.10;;
47365;SDS011;33105;47.964;7.982;2023-12-20T02:28:36;0.52;;;0.10;;
47365;SDS011;33105;47.964;7.982;2023-12-20T02:31:38;0.30;;;0.20;;
47365;SDS011;33105;47.964;7.982;2023-12-20T02:34:39;0.52;;;0.10;;
47365;SDS011;33105;47.964;7.982;2023-12-20T02:37:40;0.20;;;0.20;;
47365;SDS011;33105;47.964;7.982;2023-12-20T02:40:44;0.40;;;0.15;;
47365;SDS011;33105;47.964;7.982;2023-12-20T02:43:45;0.63;;;0.20;;
47365;SDS011;33105;47.964;7.982;2023-12-20T02:46:46;0.50;;;0.28;;
47365;SDS011;33105;47.964;7.982;2023-12-20T02:49:48;2.10;;;0.20;;
47365;SDS011;33105;47.964;7.982;2023-12-20T02:52:50;0.65;;;0.20;;
47365;SDS011;33105;47.964;7.982;2023-12-20T02:55:51;0.40;;;0.17;;
47365;SDS011;33105;47.964;7.982;2023-12-20T02:58:52;1.27;;;0.20;;
47365;SDS011;33105;47.964;7.982;2023-12-20T03:01:53;1.80;;;0.30;;
47365;SDS011;33105;47.964;7.982;2023-12-20T03:04:55;4.25;;;0.85;;
47365;SDS011;33105;47.964;7.982;2023-12-20T03:07:56;1.73;;;0.20;;
47365;SDS011;33105;47.964;7.982;2023-12-20T03:10:59;0.82;;;0.30;;
47365;SDS011;33105;47.964;7.982;2023-12-20T03:14:00;1.45;;;0.20;;
47365;SDS011;33105;47.964;7.982;2023-12-20T03:17:02;3.75;;;0.30;;
47365;SDS011;33105;47.964;7.982;2023-12-20T03:20:03;0.68;;;0.17;;
47365;SDS011;33105;47.964;7.982;2023-12-20T03:23:05;1.98;;;0.40;;
47365;SDS011;33105;47.964;7.982;2023-12-20T03:26:06;0.57;;;0.25;;
47365;SDS011;33105;47.964;7.982;2023-12-20T03:29:08;0.35;;;0.20;;
47365;SDS011;33105;47.964;7.982;2023-12-20T03:37:08;0.38;;;0.10;;
47365;SDS011;33105;47.964;7.982;2023-12-20T03:48:51;0.85;;;0.10;;
47365;SDS011;33105;47.964;7.982;2023-12-20T03:57:14;0.10;;;0.10;;
47365;SDS011;33105;47.964;7.982;2023-12-20T04:01:55;0.10;;;0.10;;
47365;SDS011;33105;47.964;7.982;2023-12-20T04:05:44;0.10;;;0.10;;
47365;SDS011;33105;47.964;7.982;2023-12-20T04:27:02;1.77;;;0.30;;
47365;SDS011;33105;47.964;7.982;2023-12-20T05:09:54;0.60;;;0.60;;
47365;SDS011;33105;47.964;7.982;2023-12-20T05:12:56;0.50;;;0.50;;
47365;SDS011;33105;47.964;7.982;2023-12-20T05:15:57;1.23;;;0.43;;
47365;SDS011;33105;47.964;7.982;2023-12-20T05:18:58;1.40;;;0.55;;
47365;SDS011;33105;47.964;7.982;2023-12-20T05:22:01;0.77;;;0.50;;
47365;SDS011;33105;47.964;7.982;2023-12-20T05:25:03;0.70;;;0.50;;
47365;SDS011;33105;47.964;7.982;2023-12-20T05:28:05;1.60;;;1.08;;
47365;SDS011;33105;47.964;7.982;2023-12-20T05:31:06;3.00;;;1.52;;
47365;SDS011;33105;47.964;7.982;2023-12-20T05:34:08;0.70;;;0.70;;
47365;SDS011;33105;47.964;7.982;2023-12-20T05:37:31;0.73;;;0.65;;
47365;SDS011;33105;47.964;7.982;2023-12-20T05:40:37;1.70;;;1.58;;
47365;SDS011;33105;47.964;7.982;2023-12-20T05:45:09;2.25;;;1.45;;
47365;SDS011;33105;47.964;7.982;2023-12-20T05:54:11;1.40;;;0.40;;
47365;SDS011;33105;47.964;7.982;2023-12-20T05:57:25;9.65;;;6.90;;
47365;SDS011;33105;47.964;7.982;2023-12-20T06:00:27;4.35;;;3.83;;
47365;SDS011;33105;47.964;7.982;2023-12-20T06:08:27;4.68;;;1.80;;
47365;SDS011;33105;47.964;7.982;2023-12-20T06:16:26;1.02;;;0.80;;
47365;SDS011;33105;47.964;7.982;2023-12-20T06:19:27;1.38;;;1.20;;
47365;SDS011;33105;47.964;7.982;2023-12-20T06:22:29;0.80;;;0.80;;
47365;SDS011;33105;47.964;7.982;2023-12-20T06:25:30;1.67;;;1.20;;
47365;SDS011;33105;47.964;7.982;2023-12-20T06:28:31;1.27;;;1.00;;
47365;SDS011;33105;47.964;7.982;2023-12-20T06:31:33;0.95;;;0.90;;
47365;SDS011;33105;47.964;7.982;2023-12-20T06:34:34;1.10;;;0.98;;
47365;SDS011;33105;47.964;7.982;2023-12-20T06:37:35;0.98;;;0.90;;
47365;SDS011;33105;47.964;7.982;2023-12-20T06:40:36;1.25;;;1.05;;
47365;SDS011;33105;47.964;7.982;2023-12-20T06:43:38;1.67;;;1.05;;
47365;SDS011;33105;47.964;7.982;2023-12-20T06:46:39;0.70;;;0.70;;
47365;SDS011;33105;47.964;7.982;2023-12-20T06:49:40;0.90;;;0.80;;
47365;SDS011;33105;47.964;7.982;2023-12-20T06:52:42;2.08;;;0.98;;
47365;SDS011;33105;47.964;7.982;2023-12-20T06:55:43;1.60;;;1.17;;
47365;SDS011;33105;47.964;7.982;2023-12-20T06:58:44;1.27;;;1.00;;
47365;SDS011;33105;47.964;7.982;2023-12-20T07:01:49;0.88;;;0.82;;
47365;SDS011;33105;47.964;7.982;2023-12-20T07:04:50;1.83;;;1.17;;
47365;SDS011;33105;47.964;7.982;2023-12-20T07:07:52;3.17;;;1.25;;
47365;SDS011;33105;47.964;7.982;2023-12-20T07:10:53;1.83;;;1.20;;
47365;SDS011;33105;47.964;7.982;2023-12-20T07:13:55;2.35;;;1.20;;
47365;SDS011;33105;47.964;7.982;2023-12-20T07:16:56;2.25;;;1.17;;
47365;SDS011;33105;47.964;7.982;2023-12-20T07:19:57;3.42;;;1.48;;
47365;SDS011;33105;47.964;7.982;2023-12-20T07:22:59;1.52;;;1.27;;
47365;SDS011;33105;47.964;7.982;2023-12-20T07:26:00;3.55;;;1.20;;
47365;SDS011;33105;47.964;7.982;2023-12-20T07:29:02;1.55;;;1.20;;
47365;SDS011;33105;47.964;7.982;2023-12-20T07:32:05;3.25;;;1.17;;
47365;SDS011;33105;47.964;7.982;2023-12-20T07:35:06;2.03;;;1.00;;
47365;SDS011;33105;47.964;7.982;2023-12-20T07:38:08;2.05;;;1.40;;
47365;SDS011;33105;47.964;7.982;2023-12-20T07:41:09;3.42;;;1.58;;
47365;SDS011;33105;47.964;7.982;2023-12-20T07:44:11;3.22;;;1.33;;
47365;SDS011;33105;47.964;7.982;2023-12-20T07:47:12;1.90;;;1.70;;
47365;SDS011;33105;47.964;7.982;2023-12-20T07:50:16;2.72;;;1.60;;
47365;SDS011;33105;47.964;7.982;2023-12-20T07:53:17;2.60;;;1.83;;
47365;SDS011;33105;47.964;7.982;2023-12-20T07:56:19;4.35;;;2.75;;
47365;SDS011;33105;47.964;7.982;2023-12-20T07:59:20;6.40;;;3.50;;
47365;SDS011;33105;47.964;7.982;2023-12-20T08:02:22;9.18;;;4.78;;
47365;SDS011;33105;47.964;7.982;2023-12-20T08:05:23;9.88;;;8.05;;
47365;SDS011;33105;47.964;7.982;2023-12-20T08:08:24;11.32;;;6.05;;
47365;SDS011;33105;47.964;7.982;2023-12-20T08:11:26;6.13;;;4.55;;
47365;SDS011;33105;47.964;7.982;2023-12-20T08:14:27;5.10;;;3.38;;
47365;SDS011;33105;47.964;7.982;2023-12-20T08:17:28;3.13;;;2.70;;
47365;SDS011;33105;47.964;7.982;2023-12-20T08:20:29;2.55;;;2.30;;
47365;SDS011;33105;47.964;7.982;2023-12-20T08:23:30;4.43;;;2.35;;
47365;SDS011;33105;47.964;7.982;2023-12-20T08:26:32;4.05;;;2.78;;
47365;SDS011;33105;47.964;7.982;2023-12-20T08:29:34;2.72;;;2.20;;
47365;SDS011;33105;47.964;7.982;2023-12-20T08:32:35;3.20;;;2.00;;
47365;SDS011;33105;47.964;7.982;2023-12-20T08:35:36;4.75;;;2.63;;
47365;SDS011;33105;47.964;7.982;2023-12-20T08:38:37;4.43;;;2.40;;
47365;SDS011;33105;47.964;7.982;2023-12-20T08:41:39;3.38;;;2.10;;
47365;SDS011;33105;47.964;7.982;2023-12-20T08:44:40;5.22;;;2.42;;
47365;SDS011;33105;47.964;7.982;2023-12-20T08:47:41;5.28;;;2.20;;
47365;SDS011;33105;47.964;7.982;2023-12-20T08:50:45;3.50;;;2.47;;
47365;SDS011;33105;47.964;7.982;2023-12-20T08:53:46;7.15;;;4.18;;
47365;SDS011;33105;47.964;7.982;2023-12-20T08:56:48;3.47;;;2.70;;
47365;SDS011;33105;47.964;7.982;2023-12-20T08:59:49;7.85;;;3.55;;
47365;SDS011;33105;47.964;7.982;2023-12-20T09:02:51;6.43;;;2.97;;
47365;SDS011;33105;47.964;7.982;2023-12-20T09:05:52;5.70;;;2.50;;
47365;SDS011;33105;47.964;7.982;2023-12-20T09:08:53;5.60;;;2.45;;
47365;SDS011;33105;47.964;7.982;2023-12-20T09:11:54;2.78;;;2.22;;
47365;SDS011;33105;47.964;7.982;2023-12-20T09:16:02;6.85;;;2.38;;
47365;SDS011;33105;47.964;7.982;2023-12-20T09:19:04;4.10;;;2.35;;
47365;SDS011;33105;47.964;7.982;2023-12-20T09:22:08;3.53;;;2.35;;
47365;SDS011;33105;47.964;7.982;2023-12-20T09:25:18;2.75;;;2.30;;
47365;SDS011;33105;47.964;7.982;2023-12-20T09:29:55;5.28;;;2.30;;
47365;SDS011;33105;47.964;7.982;2023-12-20T09:49:28;4.38;;;2.80;;
47365;SDS011;33105;47.964;7.982;2023-12-20T09:52:36;4.70;;;2.97;;
47365;SDS011;33105;47.964;7.982;2023-12-20T09:55:49;5.97;;;3.78;;
47365;SDS011;33105;47.964;7.982;2023-12-20T10:13:03;8.07;;;4.25;;
47365;SDS011;33105;47.964;7.982;2023-12-20T10:29:46;7.72;;;3.88;;
47365;SDS011;33105;47.964;7.982;2023-12-20T10:38:53;7.00;;;3.42;;
47365;SDS011;33105;47.964;7.982;2023-12-20T10:42:04;5.03;;;3.47;;
47365;SDS011;33105;47.964;7.982;2023-12-20T10:45:43;8.63;;;4.22;;
47365;SDS011;33105;47.964;7.982;2023-12-20T10:49:46;8.52;;;3.45;;
47365;SDS011;33105;47.964;7.982;2023-12-20T10:53:04;5.33;;;2.90;;
47365;SDS011;33105;47.964;7.982;2023-12-20T10:56:52;7.57;;;3.50;;
47365;SDS011;33105;47.964;7.982;2023-12-20T11:08:55;4.55;;;3.08;;
47365;SDS011;33105;47.964;7.982;2023-12-20T11:26:01;7.72;;;3.45;;
47365;SDS011;33105;47.964;7.982;2023-12-20T11:44:10;7.38;;;2.90;;
47365;SDS011;33105;47.964;7.982;2023-12-20T11:52:33;3.78;;;2.25;;
47365;SDS011;33105;47.964;7.982;2023-12-20T12:26:03;5.25;;;2.35;;
47365;SDS011;33105;47.964;7.982;2023-12-20T12:47:15;11.35;;;2.67;;
47365;SDS011;33105;47.964;7.982;2023-12-20T12:51:42;9.68;;;2.60;;
47365;SDS011;33105;47.964;7.982;2023-12-20T12:56:27;6.38;;;1.85;;
47365;SDS011;33105;47.964;7.982;2023-12-20T13:13:55;6.13;;;1.80;;
47365;SDS011;33105;47.964;7.982;2023-12-20T13:29:16;10.02;;;1.45;;
47365;SDS011;33105;47.964;7.982;2023-12-20T13:32:43;10.10;;;1.92;;
47365;SDS011;33105;47.964;7.982;2023-12-20T13:36:24;7.30;;;1.25;;
47365;SDS011;33105;47.964;7.982;2023-12-20T13:40:26;8.77;;;1.88;;
47365;SDS011;33105;47.964;7.982;2023-12-20T13:43:40;8.18;;;1.70;;
47365;SDS011;33105;47.964;7.982;2023-12-20T13:46:44;6.97;;;1.52;;
47365;SDS011;33105;47.964;7.982;2023-12-20T13:49:47;8.45;;;1.45;;
47365;SDS011;33105;47.964;7.982;2023-12-20T13:52:49;4.20;;;1.23;;
47365;SDS011;33105;47.964;7.982;2023-12-20T13:55:50;11.30;;;2.30;;
47365;SDS011;33105;47.964;7.982;2023-12-20T13:58:52;8.30;;;1.58;;
47365;SDS011;33105;47.964;7.982;2023-12-20T14:01:54;6.15;;;1.38;;
47365;SDS011;33105;47.964;7.982;2023-12-20T14:05:08;14.60;;;1.75;;
47365;SDS011;33105;47.964;7.982;2023-12-20T14:08:15;5.07;;;1.23;;
47365;SDS011;33105;47.964;7.982;2023-12-20T14:11:33;8.38;;;1.80;;
47365;SDS011;33105;47.964;7.982;2023-12-20T14:18:41;5.80;;;1.67;;
47365;SDS011;33105;47.964;7.982;2023-12-20T14:22:09;12.48;;;2.22;;
47365;SDS011;33105;47.964;7.982;2023-12-20T14:25:59;9.38;;;1.73;;
47365;SDS011;33105;47.964;7.982;2023-12-20T14:30:11;10.05;;;1.58;;
47365;SDS011;33105;47.964;7.982;2023-12-20T14:38:52;7.13;;;2.03;;
47365;SDS011;33105;47.964;7.982;2023-12-20T14:42:04;7.20;;;2.17;;
47365;SDS011;33105;47.964;7.982;2023-12-20T14:45:14;7.53;;;1.52;;
47365;SDS011;33105;47.964;7.982;2023-12-20T15:05:51;6.43;;;2.13;;
47365;SDS011;33105;47.964;7.982;2023-12-20T15:14:06;7.22;;;1.90;;
47365;SDS011;33105;47.964;7.982;2023-12-20T15:17:11;6.63;;;1.67;;
47365;SDS011;33105;47.964;7.982;2023-12-20T15:25:30;11.15;;;1.95;;
47365;SDS011;33105;47.964;7.982;2023-12-20T15:28:36;7.32;;;1.80;;
47365;SDS011;33105;47.964;7.982;2023-12-20T15:31:46;7.18;;;1.75;;
47365;SDS011;33105;47.964;7.982;2023-12-20T15:38:52;6.28;;;1.30;;
47365;SDS011;33105;47.964;7.982;2023-12-20T15:41:53;8.35;;;2.05;;
47365;SDS011;33105;47.964;7.982;2023-12-20T15:44:55;4.60;;;1.23;;
47365;SDS011;33105;47.964;7.982;2023-12-20T15:47:59;5.97;;;1.60;;
47365;SDS011;33105;47.964;7.982;2023-12-20T15:51:04;5.50;;;1.63;;
47365;SDS011;33105;47.964;7.982;2023-12-20T15:54:12;4.88;;;1.10;;
47365;SDS011;33105;47.964;7.982;2023-12-20T15:57:13;3.15;;;1.40;;
47365;SDS011;33105;47.964;7.982;2023-12-20T16:00:18;5.90;;;1.30;;
47365;SDS011;33105;47.964;7.982;2023-12-20T16:03:50;5.80;;;1.25;;
47365;SDS011;33105;47.964;7.982;2023-12-20T16:06:52;8.45;;;1.77;;
47365;SDS011;33105;47.964;7.982;2023-12-20T16:09:56;6.22;;;1.40;;
47365;SDS011;33105;47.964;7.982;2023-12-20T16:12:58;6.22;;;1.30;;
47365;SDS011;33105;47.964;7.982;2023-12-20T16:16:06;3.97;;;1.20;;
47365;SDS011;33105;47.964;7.982;2023-12-20T16:23:40;6.18;;;1.95;;
47365;SDS011;33105;47.964;7.982;2023-12-20T16:40:11;2.40;;;1.17;;
47365;SDS011;33105;47.964;7.982;2023-12-20T16:43:22;2.90;;;1.30;;
47365;SDS011;33105;47.964;7.982;2023-12-20T16:46:24;18.60;;;1.80;;
47365;SDS011;33105;47.964;7.982;2023-12-20T16:49:25;9.60;;;1.00;;
47365;SDS011;33105;47.964;7.982;2023-12-20T16:52:30;10.50;;;1.63;;
47365;SDS011;33105;47.964;7.982;2023-12-20T16:59:24;7.68;;;1.50;;
47365;SDS011;33105;47.964;7.982;2023-12-20T17:02:52;9.77;;;2.10;;
47365;SDS011;33105;47.964;7.982;2023-12-20T17:06:28;7.20;;;1.45;;
47365;SDS011;33105;47.964;7.982;2023-12-20T17:14:10;3.88;;;1.42;;
47365;SDS011;33105;47.964;7.982;2023-12-20T17:17:30;7.50;;;1.58;;
47365;SDS011;33105;47.964;7.982;2023-12-20T17:21:30;6.00;;;1.00;;
47365;SDS011;33105;47.964;7.982;2023-12-20T17:31:56;5.20;;;1.35;;
47365;SDS011;33105;47.964;7.982;2023-12-20T17:53:17;3.35;;;1.35;;
47365;SDS011;33105;47.964;7.982;2023-12-20T18:01:16;5.47;;;1.23;;
47365;SDS011;33105;47.964;7.982;2023-12-20T18:24:19;4.38;;;1.50;;
47365;SDS011;33105;47.964;7.982;2023-12-20T18:27:20;5.60;;;1.38;;
47365;SDS011;33105;47.964;7.982;2023-12-20T18:30:22;6.85;;;1.60;;
47365;SDS011;33105;47.964;7.982;2023-12-20T18:33:23;12.52;;;1.30;;
47365;SDS011;33105;47.964;7.982;2023-12-20T18:36:25;7.38;;;1.55;;
47365;SDS011;33105;47.964;7.982;2023-12-20T18:39:32;6.15;;;1.30;;
47365;SDS011;33105;47.964;7.982;2023-12-20T18:42:33;4.40;;;1.02;;
47365;SDS011;33105;47.964;7.982;2023-12-20T18:45:35;7.72;;;1.42;;
47365;SDS011;33105;47.964;7.982;2023-12-20T18:48:40;2.63;;;0.88;;
47365;SDS011;33105;47.964;7.982;2023-12-20T18:51:49;6.32;;;1.23;;
47365;SDS011;33105;47.964;7.982;2023-12-20T18:55:07;6.07;;;0.90;;
47365;SDS011;33105;47.964;7.982;2023-12-20T19:02:41;9.75;;;1.77;;
47365;SDS011;33105;47.964;7.982;2023-12-20T19:12:55;4.32;;;1.40;;
47365;SDS011;33105;47.964;7.982;2023-12-20T19:15:57;7.10;;;1.20;;
47365;SDS011;33105;47.964;7.982;2023-12-20T19:18:59;5.35;;;1.20;;
47365;SDS011;33105;47.964;7.982;2023-12-20T19:22:00;6.80;;;1.33;;
47365;SDS011;33105;47.964;7.982;2023-12-20T19:25:01;5.05;;;1.10;;
47365;SDS011;33105;47.964;7.982;2023-12-20T19:28:09;8.38;;;1.95;;
47365;SDS011;33105;47.964;7.982;2023-12-20T19:31:10;6.45;;;1.88;;
47365;SDS011;33105;47.964;7.982;2023-12-20T19:42:20;4.65;;;1.00;;
47365;SDS011;33105;47.964;7.982;2023-12-20T20:14:18;6.93;;;1.05;;
47365;SDS011;33105;47.964;7.982;2023-12-20T20:29:55;6.03;;;1.05;;
47365;SDS011;33105;47.964;7.982;2023-12-20T20:33:16;6.47;;;1.40;;
47365;SDS011;33105;47.964;7.982;2023-12-20T20:40:22;7.97;;;0.90;;
47365;SDS011;33105;47.964;7.982;2023-12-20T20:43:24;6.78;;;0.70;;
47365;SDS011;33105;47.964;7.982;2023-12-20T20:51:30;3.38;;;0.75;;
47365;SDS011;33105;47.964;7.982;2023-12-20T20:54:42;3.78;;;0.68;;
47365;SDS011;33105;47.964;7.982;2023-12-20T21:01:40;6.07;;;1.05;;
47365;SDS011;33105;47.964;7.982;2023-12-20T21:10:26;3.28;;;0.80;;
47365;SDS011;33105;47.964;7.982;2023-12-20T21:26:48;6.82;;;0.68;;
47365;SDS011;33105;47.964;7.982;2023-12-20T21:38:51;4.40;;;0.70;;
47365;SDS011;33105;47.964;7.982;2023-12-20T21:46:29;3.47;;;0.90;;
47365;SDS011;33105;47.964;7.982;2023-12-20T21:49:36;3.72;;;0.70;;
47365;SDS011;33105;47.964;7.982;2023-12-20T21:53:03;3.92;;;1.25;;
47365;SDS011;33105;47.964;7.982;2023-12-20T21:57:53;3.53;;;0.60;;
47365;SDS011;33105;47.964;7.982;2023-12-20T22:05:06;5.20;;;0.88;;
47365;SDS011;33105;47.964;7.982;2023-12-20T22:08:19;2.67;;;0.70;;
47365;SDS011;33105;47.964;7.982;2023-12-20T22:15:20;4.32;;;0.60;;
47365;SDS011;33105;47.964;7.982;2023-12-20T22:19:45;4.50;;;0.82;;
47365;SDS011;33105;47.964;7.982;2023-12-20T22:23:25;1.42;;;0.60;;
47365;SDS011;33105;47.964;7.982;2023-12-20T22:30:58;2.80;;;0.68;;
47365;SDS011;33105;47.964;7.982;2023-12-20T22:34:02;3.45;;;0.80;;
47365;SDS011;33105;47.964;7.982;2023-12-20T22:37:04;5.13;;;0.80;;
47365;SDS011;33105;47.964;7.982;2023-12-20T23:09:10;1.27;;;0.40;;
47365;SDS011;33105;47.964;7.982;2023-12-20T23:12:12;1.33;;;0.30;;
47365;SDS011;33105;47.964;7.982;2023-12-20T23:24:17;0.55;;;0.30;;
47365;SDS011;33105;47.964;7.982;2023-12-20T23:50:15;0.30;;;0.30;;
47365;SDS011;33105;47.964;7.982;2023-12-20T23:54:21;1.10;;;0.20;;
